OKBO2: North Canadian River at Britton Rd at OKC, OK

                                SHEF ID:       OKBO2     North Canadian River at Britton
STATION TYPE:

STAGE RIV-FLOW WTR-TEMP DIS-OXY CONDUCT BAT-LOAD
ft cfs F mg/l umho/cm volt
Ccp-Rev Ccp-Rev Ccp-Rev Ccp-Rev Ccp-Rev Ccp-Rev
(America/Chicago)
07/15 00:00 4.92 54 86.94 7.92 512 11.98
07/15 01:00 4.91 53 85.91 7.33 523 11.96
07/15 02:00 4.91 53 84.88 6.84 526 11.94
07/15 03:00 4.91 53 83.95 6.50 529 11.94
07/15 04:00 4.91 53 83.25 6.17 532 11.91
07/15 05:00 4.92 54 82.42 5.95 539 11.91
07/15 06:00 4.92 54 81.61 5.88 546 11.90
07/15 07:00 4.91 53 81.16 5.80 552 11.89
07/15 08:00 4.91 53 81.03 6.23 554 12.63
07/15 09:00 4.91 53 81.46 7.08 557 12.93
07/15 10:00 4.90 52 82.27 7.84 560 12.68
07/15 11:00 4.91 53 83.59 8.87 563 12.69
07/15 12:00 4.93 55 85.14 9.84 568 12.56
07/15 13:00 4.94 57 86.68 10.77 576 12.48
07/15 14:00 4.97 60 87.44 11.62 567 12.42
07/15 15:00 4.98 62 89.31 12.93 568 12.69
07/15 16:00 5.00 64 90.41 13.75 574 12.42
07/15 17:00 5.02 67 89.55 13.39 581 12.48
07/15 18:00 5.02 67 89.02 13.22 588 12.56
07/15 19:00 5.04 70 89.24 13.50 574 12.60
07/15 20:00 5.04 70 88.59 12.64 558 12.57
07/15 21:00 5.02 67 87.24 11.25 592 12.32
07/15 22:00 ---- ---- ---- ---- ---- ----
07/15 23:00 ---- ---- ---- ---- ---- ----
Data processed at Thu 16Jul2026 04:25 GMT

NOTICE: If you are parsing this page

Please convert to using our Data API. Starting early 2026 we will be migrating to: https://water.usace.army.mil with modern pages rendered in JavaScript. When this migration completes you will no longer be able to scrape this page! CWMSDataAPI (CDA)

Timeseries IDs (TSIDs)

TSIDs used from left to right in the data table
OKC3.Stage.Inst.1Hour.0.Ccp-Rev
OKC3.Flow.Inst.1Hour.0.Ccp-Rev
OKC3.Temp-Water.Inst.1Hour.0.Ccp-Rev
OKC3.Conc-DO.Inst.1Hour.0.Ccp-Rev
OKC3.Cond-Water.Inst.1Hour.0.Ccp-Rev
OKC3.Volt-Battery Load.Inst.1Hour.0.Ccp-Rev

                            

All information presented herein is the property of the government of the United States of America and may be revised or deleted at any time without prior notice. Dissemination of this information without the expressed written consent of the Public Affairs Office, Tulsa District U.S. Army Corps of Engineers is strictly prohibited. These data are gathered electronically and, as presented, have NOT undergone any form of quality control. These data are NOT guaranteed to be valid or correct.